aviador You're here:

OIII Decoded Metar

TEHERAN in IRAN
Report Time2017-12-18 08:30:00
UTC Time2017-12-18 08:58:47
Flight Rules ifr IFR
Wind190° at 04 kt
W.Decomp.*RWY 11: 0.9 kt HW 3.9 kt RCW
W.Rank190° ranks 24
Current wind is below 190° avg. (6.2)
Visibility3000 m
Phenomena:Haze
Clouds:N/A
Expected CloudBase > 7,200 ft AGL from Temp-Dew spread
CeilingNone
Temp12°C (ISA +5)
Dew Point-6°C (28% RH)
AAT7.9°C
QNH1023 hPa
Density Alt4,193 ft
Elevation3,907 ft
Report Wrong Elevation
Raw Report
METAR OIII 180830Z 19004KT 6000 3000SE HZ NSC 12/M06 Q1023 A3022 NOSIG=

Extra information for OIII:More info

Metar Taf Metar & Taf Last 4 Metars F.Rules Stats Wind Profile Meteogram Temp Stats Airport Information Weather charts Add Link Nearby VenuesMetar ALERT Operation Metar Decoded Social comments